19:58
Airports
History
Links
Donate
Help keep this website running!
PayPal
Bitcoin
This page is community maintained. The information is intended for PC simulator navigation or reference.
Always use approved charts for navigation.
EDSH
Backnang-Heiningen
Backnang-Heiningen (EDSH)
Allmersbach, Baden-Wurttemberg, Germany (71573)
(C)
Lat/Lng:48° 55' 11.4" N / 9° 27' 19.2" E
48.919833 / 9.455333
Elevation:963'ft / 294mMSL
ID / ICAO:EDSH
Runways:1
Longest:10-28
Grass 499m / 1,637ft
Controlled:Yes
Nearby Weather19:50 GMT 2017-12-12
Nearby weather at EDDS, Stuttgart located 19.1 nautical miles from EDSH
Altimeter: 30.00
Visibility: 6.2 statute miles
Wind: 4 knots (from 200°)
Temp: 0°c / 32°f
Humidity: %

METAR: EDDS 121950Z 20004KT CAVOK 00/M02 Q1016 NOSIG

(Powered by phpweather)
Airport Radio Frequencies
Tower: 126.5
Nearby VORs <50NM
Nearby NDBs
Runway 10 / 28
Dimensions:498.9 x 29.9m 1637' x 98'ft
Surface:Grass
Runway 10 [A]Runway 28 [B]
Heading:106°TH 286°TH
Lat:
Lng:
48° 55' 13.63"N
9° 27' 7.35"E
48° 55' 9.17"N
9° 27' 31.05"E
User Notes and Comments
48° 55' 11.4" N / 9° 27' 19.2" E
Distance To
Airport ID:
Nearby Airports
(C) Pattonville Airport 11.2 NM
EDTQ WSW 249°
(C) Stuttgart 19.1 NM
EDDS ( WX ) SSW 213°
(U) SCHWABISCH HALL 20.2 NM
EDTY NE 47°
(C) Heubach 22.9 NM
EDTH ESE 110°
(U) Ingelfingen Buehlhof 29.2 NM
EDGI NNE 18°
(U) Laichingen 30.4 NM
EDPJ SSE 163°
(U) Mosbach Lohrbach 36.5 NM
EDGM NNW 335°
VFR Chart
Flight Planning at SkyVector.com